Terminal Aerodrome Forecast
Issued by NWS Upton, NY

Home | Current Version | Previous Version | Text Only | Print | Product List | Glossary On
Versions: 1 2 3 4 5 6 7 8 9 10 11 12 13 14 15 16 17 18 19 20 21 22 23 24 25 26 27 28 29 30 31 32
000
FTUS41 KOKX 211741
TAFEWR
TAF
KEWR 211741Z 2118/2224 22014G22KT P6SM SCT250
     FM212200 22011KT P6SM SCT250
     FM220200 21008KT P6SM SCT045 SCT250
     FM220600 20005KT P6SM BKN045
     FM220900 22004KT 6SM -RA OVC040
     FM221100 VRB05KT 5SM -RA OVC025
     FM221400 31009KT P6SM VCSH SCT025 BKN045
     FM221600 32013G20KT P6SM SCT030 BKN080
     FM221800 32016G22KT P6SM SCT040 SCT250=

USA.gov is the U.S. government's official web portal to all federal, state and local government web resources and services.